Time;durP1;ratioP1;P1;durP2;ratioP2;P2;SDS_P1;SDS_P2;PMS_P1;PMS_P2;Temp;Humidity;BMP_temperature;BMP_pressure;BME280_temperature;BME280_humidity;BME280_pressure;Samples;Min_cycle;Max_cycle;Signal;HPM_P1;HPM_P2
2023/01/05 00:01:33;;;;;;;1.20;0.80;;;;;;;9.64;100.00;95953.16;4995454;28;20206;-83
2023/01/05 00:03:58;;;;;;;0.50;0.50;;;;;;;9.69;99.55;95958.75;5010529;28;20270;-83
2023/01/05 00:06:24;;;;;;;0.37;0.37;;;;;;;9.74;99.46;95964.38;5003140;28;20191;-83
2023/01/05 00:08:49;;;;;;;0.40;0.40;;;;;;;9.73;100.00;95967.94;4987592;28;20204;-83
2023/01/05 00:22:33;;;;;;;0.30;0.30;;;;;;;9.75;100.00;95975.56;4996019;28;20191;-85
2023/01/05 00:25:06;;;;;;;0.83;0.40;;;;;;;9.70;100.00;95956.97;5003581;28;20191;-84
2023/01/05 00:27:32;;;;;;;0.40;0.37;;;;;;;9.71;100.00;95964.63;4986361;28;20230;-84
2023/01/05 00:29:58;;;;;;;0.30;0.30;;;;;;;9.65;100.00;95962.59;4995468;28;20190;-83
2023/01/05 00:32:23;;;;;;;0.30;0.30;;;;;;;9.64;100.00;95964.34;4989356;28;20685;-85
2023/01/05 00:34:49;;;;;;;0.30;0.30;;;;;;;9.74;100.00;95942.81;5000428;28;20203;-83
2023/01/05 00:37:15;;;;;;;0.50;0.20;;;;;;;9.64;100.00;95935.00;4995431;28;20216;-83
2023/01/05 00:39:40;;;;;;;0.23;0.23;;;;;;;9.68;100.00;95936.38;4996700;28;20671;-82
2023/01/05 00:42:06;;;;;;;0.30;0.30;;;;;;;9.70;100.00;95934.47;4985590;28;20278;-82
2023/01/05 00:44:31;;;;;;;0.33;0.33;;;;;;;9.63;100.00;95931.59;5007318;28;20188;-83
2023/01/05 00:46:56;;;;;;;1.17;0.23;;;;;;;9.70;100.00;95920.69;4977431;28;20200;-84
2023/01/05 00:49:21;;;;;;;0.30;0.30;;;;;;;9.62;100.00;95926.53;4999946;28;20202;-84
2023/01/05 00:51:47;;;;;;;0.60;0.30;;;;;;;9.72;100.00;95923.94;4985846;28;20191;-81
2023/01/05 00:54:12;;;;;;;0.30;0.30;;;;;;;9.75;100.00;95913.34;5000408;28;20212;-82
2023/01/05 00:56:37;;;;;;;0.27;0.27;;;;;;;9.70;100.00;95920.69;4995401;28;20198;-82
2023/01/05 00:59:02;;;;;;;0.73;0.20;;;;;;;9.72;100.00;95919.63;4984787;28;20748;-82
2023/01/05 01:01:28;;;;;;;0.40;0.30;;;;;;;9.73;100.00;95926.44;4990343;28;20195;-84
2023/01/05 01:03:54;;;;;;;0.30;0.30;;;;;;;9.72;100.00;95914.44;4990694;28;20202;-82
2023/01/05 01:06:20;;;;;;;0.20;0.20;;;;;;;9.74;100.00;95922.06;4986563;28;20258;-84
2023/01/05 01:08:45;;;;;;;0.20;0.20;;;;;;;9.80;100.00;95914.56;4998557;28;20211;-84
2023/01/05 01:11:10;;;;;;;0.30;0.30;;;;;;;9.89;100.00;95923.31;5008578;28;20242;-83
2023/01/05 01:13:37;;;;;;;0.20;0.20;;;;;;;9.78;100.00;95934.63;5007585;28;20210;-85
2023/01/05 01:16:11;;;;;;;0.50;0.30;;;;;;;9.89;100.00;95931.94;5001729;28;20601;-82
2023/01/05 01:18:36;;;;;;;0.30;0.30;;;;;;;9.88;100.00;95929.44;4994417;28;20298;-85
2023/01/05 01:21:01;;;;;;;0.20;0.20;;;;;;;9.88;100.00;95919.06;4977043;28;20286;-83
2023/01/05 01:23:27;;;;;;;0.30;0.30;;;;;;;9.92;100.00;95918.69;4992536;28;20195;-83
2023/01/05 01:25:52;;;;;;;0.30;0.30;;;;;;;9.98;100.00;95896.56;4993776;28;20221;-84
2023/01/05 01:28:17;;;;;;;0.30;0.30;;;;;;;9.88;100.00;95904.34;4980740;28;20219;-82
2023/01/05 01:30:43;;;;;;;0.27;0.27;;;;;;;9.89;100.00;95910.34;4995684;28;20242;-82
2023/01/05 01:33:08;;;;;;;0.20;0.20;;;;;;;9.80;100.00;95900.75;4984524;28;20210;-83
2023/01/05 01:35:36;;;;;;;0.20;0.20;;;;;;;9.90;100.00;95915.41;4993769;28;20195;-82
2023/01/05 01:38:04;;;;;;;0.20;0.20;;;;;;;9.88;99.81;95906.91;4987027;28;20637;-81
2023/01/05 01:40:30;;;;;;;0.27;0.27;;;;;;;9.82;99.55;95893.69;5018909;28;20195;-80
2023/01/05 01:42:55;;;;;;;0.20;0.20;;;;;;;9.89;98.29;95871.44;5026525;28;20198;-80
2023/01/05 01:45:22;;;;;;;0.30;0.30;;;;;;;10.05;97.47;95876.09;5030735;28;20177;-80
2023/01/05 01:47:51;;;;;;;0.30;0.30;;;;;;;9.98;97.38;95872.38;5028280;28;20211;-79
2023/01/05 01:50:26;;;;;;;0.10;0.10;;;;;;;10.08;96.40;95868.88;5025962;28;20163;-79
2023/01/05 01:52:54;;;;;;;0.20;0.20;;;;;;;10.09;96.71;95859.31;5001371;28;20679;-81
2023/01/05 01:55:20;;;;;;;0.20;0.20;;;;;;;10.04;96.69;95874.44;4994635;28;20184;-85
2023/01/05 01:57:45;;;;;;;0.53;0.20;;;;;;;9.95;97.09;95889.06;5022429;28;20214;-81
2023/01/05 02:00:13;;;;;;;0.30;0.30;;;;;;;10.08;96.78;95878.44;4989548;28;20187;-82
2023/01/05 02:02:39;;;;;;;0.57;0.30;;;;;;;10.08;96.47;95873.25;4976267;28;20189;-81
2023/01/05 02:05:07;;;;;;;0.30;0.30;;;;;;;10.18;95.68;95884.44;4993961;28;20209;-83
2023/01/05 02:07:36;;;;;;;0.30;0.30;;;;;;;10.18;95.45;95861.91;4992602;28;20582;-82
2023/01/05 02:10:01;;;;;;;0.20;0.20;;;;;;;10.09;95.97;95854.94;4999294;28;20180;-83
2023/01/05 02:12:45;;;;;;;0.30;0.30;;;;;;;10.06;95.80;95865.56;4975778;28;20195;-83
2023/01/05 02:15:29;;;;;;;0.40;0.40;;;;;;;10.08;95.97;95857.66;4994928;28;20289;-83
2023/01/05 02:18:07;;;;;;;0.10;0.10;;;;;;;10.13;95.30;95861.47;4994869;28;20257;-83
2023/01/05 02:20:43;;;;;;;0.20;0.20;;;;;;;10.15;95.76;95862.16;4988411;28;20191;-83
2023/01/05 02:23:39;;;;;;;0.30;0.30;;;;;;;10.14;95.22;95867.47;4996060;28;20191;-83
2023/01/05 02:26:34;;;;;;;0.20;0.20;;;;;;;10.15;95.75;95866.53;5003483;28;20193;-83
2023/01/05 02:29:31;;;;;;;0.30;0.30;;;;;;;10.18;95.97;95867.09;5008247;28;20306;-82
2023/01/05 02:32:42;;;;;;;0.20;0.20;;;;;;;10.18;95.76;95864.50;5003044;28;20184;-82
2023/01/05 02:35:34;;;;;;;0.10;0.10;;;;;;;10.08;96.34;95855.06;4989128;28;20234;-82
2023/01/05 02:38:26;;;;;;;0.20;0.20;;;;;;;10.14;95.55;95855.31;4958163;28;20224;-83
2023/01/05 02:40:56;;;;;;;0.20;0.20;;;;;;;10.11;96.51;95858.19;4990955;28;20194;-83
2023/01/05 02:43:21;;;;;;;0.30;0.30;;;;;;;10.07;96.27;95856.00;5002241;28;20195;-84
2023/01/05 02:45:47;;;;;;;0.20;0.20;;;;;;;10.13;95.27;95855.47;5007707;28;20265;-82
2023/01/05 02:48:12;;;;;;;0.20;0.20;;;;;;;10.09;95.83;95854.13;4988191;28;20239;-83
2023/01/05 02:50:46;;;;;;;0.10;0.10;;;;;;;10.15;95.29;95863.94;4998620;28;20188;-83
2023/01/05 02:53:23;;;;;;;1.50;0.30;;;;;;;10.20;94.89;95862.56;4990008;28;20262;-83
2023/01/05 02:56:10;;;;;;;0.40;0.20;;;;;;;10.17;94.60;95851.66;4995169;28;20698;-82
2023/01/05 02:58:40;;;;;;;0.20;0.20;;;;;;;10.15;95.42;95880.31;4970398;28;20212;-84
2023/01/05 03:01:12;;;;;;;0.20;0.20;;;;;;;10.16;96.03;95863.81;4994070;28;20188;-83
2023/01/05 03:03:41;;;;;;;0.20;0.20;;;;;;;10.05;97.18;95863.94;4995780;28;20191;-81
2023/01/05 03:06:34;;;;;;;0.20;0.20;;;;;;;10.11;96.55;95873.78;4994893;28;20282;-83
2023/01/05 03:09:02;;;;;;;0.10;0.10;;;;;;;10.06;96.75;95867.34;5005923;28;20218;-83
2023/01/05 03:14:40;;;;;;;0.20;0.20;;;;;;;10.06;95.92;95865.56;5000176;28;20219;-84
2023/01/05 03:17:08;;;;;;;0.20;0.20;;;;;;;10.04;96.30;95871.84;4983781;28;20195;-82
2023/01/05 03:19:40;;;;;;;0.20;0.20;;;;;;;9.99;96.51;95871.47;5009002;28;20226;-82
2023/01/05 03:36:41;;;;;;;0.20;0.20;;;;;;;10.02;99.92;95873.78;4994099;28;20271;-81
2023/01/05 03:39:07;;;;;;;0.20;0.20;;;;;;;9.90;100.00;95876.50;4996868;28;20244;-83
2023/01/05 03:41:33;;;;;;;0.20;0.20;;;;;;;9.97;100.00;95881.13;5000777;28;20184;-83
2023/01/05 03:43:58;;;;;;;0.43;0.20;;;;;;;9.92;100.00;95872.00;4996482;28;20606;-83
2023/01/05 03:46:24;;;;;;;0.50;0.30;;;;;;;9.97;100.00;95879.34;4977533;28;20577;-82
2023/01/05 03:48:49;;;;;;;0.30;0.30;;;;;;;10.14;99.97;95883.06;4983100;28;20289;-83
2023/01/05 03:51:15;;;;;;;0.20;0.20;;;;;;;10.06;100.00;95890.69;5005695;28;20620;-83
2023/01/05 03:53:41;;;;;;;0.13;0.13;;;;;;;9.86;100.00;95875.13;4994234;28;20580;-83
2023/01/05 03:56:06;;;;;;;0.20;0.20;;;;;;;10.07;100.00;95879.34;4990670;28;20208;-83
2023/01/05 03:58:32;;;;;;;0.40;0.20;;;;;;;9.99;100.00;95874.06;5002506;28;20204;-82
2023/01/05 04:00:57;;;;;;;0.20;0.20;;;;;;;9.94;100.00;95877.03;4977967;28;20197;-82
2023/01/05 04:03:22;;;;;;;0.20;0.20;;;;;;;9.96;100.00;95871.72;4977951;28;20755;-82
2023/01/05 04:05:48;;;;;;;0.30;0.30;;;;;;;9.97;100.00;95886.31;4982203;28;20326;-81
2023/01/05 04:08:13;;;;;;;0.20;0.20;;;;;;;9.89;100.00;95893.03;5003129;28;20742;-84
2023/01/05 04:10:38;;;;;;;0.20;0.20;;;;;;;9.99;100.00;95895.63;5009650;28;20222;-83
2023/01/05 04:13:04;;;;;;;0.20;0.20;;;;;;;10.06;100.00;95890.69;4990762;28;20222;-83
2023/01/05 04:15:29;;;;;;;0.10;0.10;;;;;;;9.89;100.00;95895.63;4985270;28;20747;-82
2023/01/05 04:17:54;;;;;;;0.20;0.20;;;;;;;9.81;100.00;95882.50;4996736;28;20199;-82
2023/01/05 04:20:20;;;;;;;0.10;0.10;;;;;;;10.02;100.00;95902.31;4991919;28;20200;-84
2023/01/05 04:22:45;;;;;;;0.43;0.20;;;;;;;10.03;100.00;95893.56;4981771;28;20266;-83
2023/01/05 04:25:10;;;;;;;0.20;0.20;;;;;;;9.95;100.00;95891.66;4987085;28;20207;-82
2023/01/05 04:27:36;;;;;;;0.20;0.20;;;;;;;9.93;100.00;95889.19;4993070;28;20242;-83
2023/01/05 04:30:01;;;;;;;0.17;0.17;;;;;;;9.87;100.00;95883.72;4991357;28;20191;-83
2023/01/05 04:32:26;;;;;;;0.20;0.20;;;;;;;9.93;99.92;95886.59;5008761;28;20198;-80
2023/01/05 04:34:52;;;;;;;0.60;0.20;;;;;;;9.98;99.31;95877.56;4979094;28;20199;-82
2023/01/05 04:37:17;;;;;;;0.20;0.20;;;;;;;9.99;99.39;95889.63;4976280;28;20210;-82
2023/01/05 04:39:42;;;;;;;0.37;0.30;;;;;;;9.97;99.46;95887.13;4981242;28;20710;-82
2023/01/05 04:42:07;;;;;;;0.10;0.10;;;;;;;9.91;100.00;95900.66;4999177;28;20196;-82
2023/01/05 04:44:33;;;;;;;0.20;0.20;;;;;;;9.90;99.99;95899.84;4976812;28;20195;-82
2023/01/05 04:46:58;;;;;;;0.10;0.10;;;;;;;9.81;100.00;95892.88;4978057;28;20191;-82
2023/01/05 04:49:23;;;;;;;0.20;0.20;;;;;;;9.86;100.00;95900.25;5001584;28;20249;-82
2023/01/05 04:51:49;;;;;;;0.20;0.20;;;;;;;9.97;100.00;95907.88;4980533;28;20196;-82
2023/01/05 04:54:14;;;;;;;0.30;0.30;;;;;;;9.90;100.00;95902.44;4976682;28;20635;-83
2023/01/05 04:56:39;;;;;;;0.47;0.20;;;;;;;9.96;100.00;95913.22;4992293;28;20277;-82
2023/01/05 04:59:07;;;;;;;0.20;0.20;;;;;;;9.74;100.00;95904.72;4998867;28;20586;-83
2023/01/05 05:01:32;;;;;;;0.33;0.20;;;;;;;9.77;100.00;95917.44;4977683;28;20644;-82
2023/01/05 05:03:58;;;;;;;0.17;0.17;;;;;;;9.72;100.00;95909.25;4978733;28;20234;-82
2023/01/05 05:06:23;;;;;;;0.20;0.20;;;;;;;9.77;100.00;95916.59;4992772;28;20188;-82
2023/01/05 05:08:48;;;;;;;0.20;0.20;;;;;;;9.71;100.00;95917.94;4988508;28;20221;-82
2023/01/05 05:11:13;;;;;;;0.60;0.20;;;;;;;9.53;100.00;95927.31;4992956;28;20187;-83
2023/01/05 05:13:39;;;;;;;0.33;0.30;;;;;;;9.54;100.00;95931.53;4992938;28;20215;-84
2023/01/05 05:16:04;;;;;;;0.20;0.20;;;;;;;9.60;100.00;95928.44;4982225;28;20550;-83
2023/01/05 05:18:30;;;;;;;0.30;0.30;;;;;;;9.33;100.00;95919.47;4994793;28;20216;-82
2023/01/05 05:20:55;;;;;;;0.10;0.10;;;;;;;9.45;100.00;95946.13;4990202;28;20199;-82
2023/01/05 05:23:20;;;;;;;0.20;0.20;;;;;;;9.40;100.00;95930.16;4984278;28;20656;-83
2023/01/05 05:25:50;;;;;;;0.30;0.20;;;;;;;9.51;100.00;95931.81;4979475;28;20195;-82
2023/01/05 05:28:15;;;;;;;0.10;0.10;;;;;;;9.23;100.00;95939.34;4992622;28;20233;-83
2023/01/05 05:30:40;;;;;;;0.10;0.10;;;;;;;9.25;100.00;95932.25;4980210;28;20594;-84
2023/01/05 05:33:06;;;;;;;0.47;0.20;;;;;;;9.34;100.00;95941.84;5002411;28;20207;-82
2023/01/05 05:35:31;;;;;;;0.10;0.10;;;;;;;9.26;100.00;95946.03;4990738;28;20183;-83
2023/01/05 05:37:56;;;;;;;0.20;0.20;;;;;;;9.34;100.00;95952.22;5009315;28;20216;-83
2023/01/05 05:40:22;;;;;;;0.20;0.20;;;;;;;9.29;100.00;95951.00;5002172;28;20200;-81
2023/01/05 05:42:47;;;;;;;0.27;0.20;;;;;;;9.26;100.00;95965.00;4979840;28;20647;-83
2023/01/05 05:45:12;;;;;;;0.20;0.20;;;;;;;9.19;100.00;95963.91;4992589;28;20303;-83
2023/01/05 05:47:38;;;;;;;0.30;0.30;;;;;;;9.21;100.00;95967.19;4996528;28;20653;-82
2023/01/05 05:50:03;;;;;;;0.20;0.20;;;;;;;9.14;100.00;95960.88;5001517;28;20195;-84
2023/01/05 05:52:28;;;;;;;1.40;0.30;;;;;;;9.19;100.00;95974.25;4994683;28;20283;-82
2023/01/05 05:54:54;;;;;;;0.30;0.30;;;;;;;9.10;100.00;95972.44;4993287;28;20546;-81
2023/01/05 05:57:19;;;;;;;0.70;0.30;;;;;;;9.20;100.00;95970.72;4982253;28;20219;-82
2023/01/05 05:59:44;;;;;;;0.57;0.40;;;;;;;9.13;100.00;95976.53;4987850;28;20218;-82
2023/01/05 06:02:10;;;;;;;1.07;0.53;;;;;;;9.15;100.00;95980.63;5008353;28;20189;-83
2023/01/05 06:04:35;;;;;;;0.67;0.40;;;;;;;9.08;100.00;95977.72;4994195;28;20722;-81
2023/01/05 06:07:00;;;;;;;0.30;0.30;;;;;;;9.14;100.00;95997.13;4984116;28;20240;-81
2023/01/05 06:09:26;;;;;;;0.30;0.30;;;;;;;9.23;100.00;96001.56;4977317;28;20188;-84
2023/01/05 06:11:51;;;;;;;0.57;0.40;;;;;;;9.14;100.00;96006.69;4994824;28;20237;-82
2023/01/05 06:14:16;;;;;;;0.53;0.53;;;;;;;9.01;100.00;96001.69;4992023;28;20311;-81
2023/01/05 06:16:42;;;;;;;1.63;0.60;;;;;;;9.04;100.00;96001.44;5003701;28;20197;-82
2023/01/05 06:19:08;;;;;;;1.47;0.90;;;;;;;9.13;100.00;96007.63;4985044;28;20227;-82
2023/01/05 06:21:33;;;;;;;1.70;0.90;;;;;;;9.03;100.00;95994.63;4988972;28;20619;-83
2023/01/05 06:23:59;;;;;;;1.70;1.27;;;;;;;8.88;100.00;96009.66;5007048;28;20215;-80
2023/01/05 06:26:24;;;;;;;2.40;1.20;;;;;;;8.97;100.00;96014.06;4976844;28;20187;-83
2023/01/05 06:28:49;;;;;;;4.73;1.33;;;;;;;8.96;100.00;96015.03;4976428;28;20231;-82
2023/01/05 06:31:14;;;;;;;2.47;1.30;;;;;;;9.03;100.00;96023.13;4998252;28;20203;-82
2023/01/05 06:33:40;;;;;;;2.10;1.00;;;;;;;8.91;100.00;96011.97;4990879;28;20289;-81
2023/01/05 06:36:05;;;;;;;2.97;1.10;;;;;;;8.90;100.00;96019.88;4995507;28;20600;-81
2023/01/05 06:38:31;;;;;;;3.27;1.20;;;;;;;8.98;100.00;96014.88;5008793;28;20227;-82
2023/01/05 06:40:56;;;;;;;6.47;1.50;;;;;;;8.95;100.00;96023.75;4987840;28;20216;-83
2023/01/05 06:43:23;;;;;;;3.17;1.53;;;;;;;8.92;100.00;96024.00;4997932;28;20176;-82
2023/01/05 06:45:48;;;;;;;2.30;1.70;;;;;;;8.96;100.00;96024.56;4994463;28;20195;-82
2023/01/05 06:48:14;;;;;;;3.47;1.20;;;;;;;8.82;100.00;96028.28;5013521;28;20228;-82
2023/01/05 06:50:39;;;;;;;4.10;1.30;;;;;;;8.97;100.00;96037.38;4990778;28;20190;-82
2023/01/05 06:53:04;;;;;;;2.70;1.20;;;;;;;8.99;100.00;96038.06;4995375;28;20314;-82
2023/01/05 06:55:30;;;;;;;5.10;1.60;;;;;;;8.87;100.00;96027.91;4991705;28;20214;-81
2023/01/05 06:57:55;;;;;;;4.13;1.70;;;;;;;8.98;100.00;96040.78;4987184;28;20203;-83
2023/01/05 07:00:20;;;;;;;3.07;1.67;;;;;;;8.96;100.00;96037.50;4981434;28;20213;-83
2023/01/05 07:02:47;;;;;;;3.97;1.27;;;;;;;9.01;100.00;96043.97;4998137;28;20188;-82
2023/01/05 07:05:12;;;;;;;6.47;1.40;;;;;;;8.85;100.00;96041.00;4984306;28;20184;-82
2023/01/05 07:07:37;;;;;;;2.13;1.30;;;;;;;8.89;100.00;96050.13;4988285;28;20274;-82
2023/01/05 07:10:03;;;;;;;5.33;1.23;;;;;;;9.01;100.00;96046.56;4995100;28;20188;-83
2023/01/05 07:12:28;;;;;;;2.10;1.30;;;;;;;8.98;100.00;96041.63;5010228;28;20604;-82
2023/01/05 07:14:54;;;;;;;4.70;1.60;;;;;;;8.90;100.00;96054.38;5000743;28;20267;-83
2023/01/05 07:17:19;;;;;;;2.77;1.10;;;;;;;8.98;100.00;96051.16;4997314;28;20246;-82
2023/01/05 07:19:44;;;;;;;2.07;1.20;;;;;;;9.04;100.00;96053.25;4994841;28;20264;-84
2023/01/05 07:22:10;;;;;;;3.83;1.37;;;;;;;8.87;100.00;96046.03;4999657;28;20199;-83
2023/01/05 07:24:35;;;;;;;3.77;1.53;;;;;;;8.89;100.00;96044.13;4985313;28;20668;-79
2023/01/05 07:27:01;;;;;;;7.30;1.73;;;;;;;8.77;100.00;96064.91;4978448;28;20209;-84
2023/01/05 07:29:26;;;;;;;6.13;1.60;;;;;;;8.82;100.00;96058.53;4996966;28;20218;-83
2023/01/05 07:31:51;;;;;;;6.80;1.57;;;;;;;8.86;100.00;96072.88;5002712;28;20191;-85
2023/01/05 07:34:17;;;;;;;3.13;1.57;;;;;;;8.83;100.00;96057.56;5008306;28;20266;-84
2023/01/05 07:36:43;;;;;;;4.60;1.77;;;;;;;8.82;100.00;96063.72;4994172;28;20279;-85
2023/01/05 07:39:08;;;;;;;3.67;1.60;;;;;;;8.81;100.00;96057.72;4987698;28;20314;-83
2023/01/05 07:41:33;;;;;;;5.80;2.03;;;;;;;8.79;100.00;96073.38;4982995;28;20254;-84
2023/01/05 07:43:59;;;;;;;7.97;2.20;;;;;;;8.83;100.00;96060.97;5008312;28;20183;-85
2023/01/05 07:46:24;;;;;;;6.23;1.93;;;;;;;8.90;100.00;96066.50;4990888;28;20197;-85
2023/01/05 07:48:50;;;;;;;7.10;1.70;;;;;;;8.84;100.00;96074.78;5005612;28;20212;-87
2023/01/05 07:51:16;;;;;;;6.20;2.60;;;;;;;8.76;100.00;96075.41;4991695;28;20562;-82
2023/01/05 07:53:42;;;;;;;8.63;2.97;;;;;;;8.80;100.00;96084.56;4994896;28;20323;-82
2023/01/05 07:56:08;;;;;;;9.43;3.47;;;;;;;8.86;100.00;96096.19;5008150;28;20246;-80
2023/01/05 07:58:34;;;;;;;8.57;2.63;;;;;;;8.79;100.00;96090.69;5024137;28;20209;-81
2023/01/05 08:01:07;;;;;;;8.83;4.10;;;;;;;8.83;100.00;96093.84;5006220;28;20195;-82
2023/01/05 08:03:33;;;;;;;10.33;3.37;;;;;;;8.73;100.00;96107.53;5010881;28;20176;-81
2023/01/05 08:06:03;;;;;;;13.67;6.67;;;;;;;8.83;100.00;96099.00;5019090;28;20184;-80
2023/01/05 08:08:29;;;;;;;16.00;10.77;;;;;;;8.95;100.00;96108.41;5026231;28;20255;-83
2023/01/05 08:10:54;;;;;;;10.43;4.77;;;;;;;9.02;100.00;96122.50;4999988;28;20199;-85
2023/01/05 08:16:04;;;;;;;19.60;8.57;;;;;;;8.88;100.00;96113.25;5006662;28;20190;-83
2023/01/05 08:18:29;;;;;;;26.00;15.30;;;;;;;8.74;100.00;96121.28;4994402;28;21001;-83
2023/01/05 08:20:56;;;;;;;4.77;2.83;;;;;;;8.74;98.32;96119.53;5004889;28;20190;-85
2023/01/05 08:23:23;;;;;;;8.87;2.73;;;;;;;8.92;97.07;96116.41;4998878;28;20235;-85
2023/01/05 08:25:48;;;;;;;7.40;3.00;;;;;;;8.99;97.03;96127.91;4999136;28;20192;-85
2023/01/05 08:28:13;;;;;;;8.87;3.00;;;;;;;8.97;96.35;96129.81;4997958;28;20275;-84
2023/01/05 08:30:39;;;;;;;10.97;3.00;;;;;;;9.05;95.58;96135.22;4994970;28;20651;-86
2023/01/05 08:33:04;;;;;;;14.63;2.20;;;;;;;8.92;94.79;96142.31;4983541;28;20207;-85
2023/01/05 08:35:30;;;;;;;7.67;2.20;;;;;;;8.82;94.26;96138.81;4990679;28;20187;-84
2023/01/05 08:37:55;;;;;;;9.73;2.10;;;;;;;8.64;92.96;96134.16;4990499;28;20199;-83
2023/01/05 08:40:21;;;;;;;8.67;1.67;;;;;;;8.72;91.09;96144.72;4992907;28;20223;-84
2023/01/05 08:42:49;;;;;;;9.50;2.00;;;;;;;8.77;90.87;96137.41;5005925;28;20592;-85
2023/01/05 08:45:14;;;;;;;6.43;1.60;;;;;;;8.79;89.93;96147.66;4995606;28;20188;-85
2023/01/05 08:47:40;;;;;;;6.90;2.23;;;;;;;8.96;89.34;96154.91;4974059;28;20335;-85
2023/01/05 08:50:08;;;;;;;6.70;1.90;;;;;;;8.78;88.70;96153.78;4980748;28;20187;-86
2023/01/05 08:52:34;;;;;;;10.97;2.03;;;;;;;8.82;88.00;96151.75;4990202;28;20179;-85
2023/01/05 08:54:59;;;;;;;7.80;1.80;;;;;;;8.90;87.38;96164.91;4991729;28;20195;-86
2023/01/05 08:57:24;;;;;;;9.23;1.80;;;;;;;8.75;86.92;96172.97;4993948;28;20348;-86
2023/01/05 08:59:50;;;;;;;8.50;1.97;;;;;;;8.77;87.34;96170.25;4988013;28;20195;-84
2023/01/05 09:02:15;;;;;;;9.30;2.00;;;;;;;8.80;86.85;96188.13;4992481;28;20210;-87
2023/01/05 09:04:40;;;;;;;11.90;2.60;;;;;;;8.74;86.79;96184.25;4992929;28;20187;-86
2023/01/05 09:07:05;;;;;;;12.90;1.93;;;;;;;8.85;85.67;96192.97;4988330;28;20246;-86
2023/01/05 09:09:31;;;;;;;9.60;2.20;;;;;;;8.84;85.75;96204.28;4998056;28;20211;-87
2023/01/05 09:11:56;;;;;;;12.97;2.20;;;;;;;8.74;84.96;96210.16;4985430;28;20560;-86
2023/01/05 09:14:21;;;;;;;11.27;2.53;;;;;;;8.67;85.41;96211.59;4992691;28;20211;-86
2023/01/05 09:16:47;;;;;;;10.97;2.20;;;;;;;8.80;85.12;96233.00;4999310;28;20195;-85
2023/01/05 09:19:12;;;;;;;8.57;2.13;;;;;;;8.77;84.90;96222.06;4984262;28;20210;-86
2023/01/05 09:21:40;;;;;;;10.90;2.60;;;;;;;9.05;83.84;96228.47;4993303;28;20200;-87
2023/01/05 09:24:07;;;;;;;12.23;2.50;;;;;;;8.71;84.99;96223.34;4980196;28;20187;-86
2023/01/05 09:26:32;;;;;;;12.60;2.33;;;;;;;8.92;85.45;96228.63;4990689;28;20278;-85
2023/01/05 09:28:58;;;;;;;6.57;2.37;;;;;;;8.93;85.50;96225.09;5001611;28;20782;-86
2023/01/05 09:31:23;;;;;;;9.20;2.70;;;;;;;8.97;86.15;96226.47;4999574;28;20282;-83
2023/01/05 09:33:48;;;;;;;11.73;2.87;;;;;;;8.86;85.95;96231.69;4987680;28;20215;-86
2023/01/05 09:36:17;;;;;;;7.70;2.40;;;;;;;8.84;85.55;96227.59;4988491;28;20795;-87
2023/01/05 09:38:48;;;;;;;10.67;2.33;;;;;;;8.95;85.43;96241.34;4979796;28;20339;-88
2023/01/05 09:41:25;;;;;;;13.23;2.63;;;;;;;9.00;84.51;96233.19;5000512;28;20190;-87
2023/01/05 09:43:57;;;;;;;11.87;2.77;;;;;;;8.94;84.52;96241.47;4999912;28;20218;-86
2023/01/05 09:46:26;;;;;;;10.97;2.60;;;;;;;8.96;83.41;96236.97;4994064;28;20179;-85
2023/01/05 09:48:54;;;;;;;15.87;2.40;;;;;;;9.07;83.22;96235.16;5001511;28;20202;-86
2023/01/05 09:51:20;;;;;;;16.30;3.00;;;;;;;9.08;82.20;96241.19;4991166;28;20514;-86
2023/01/05 09:53:45;;;;;;;9.63;2.50;;;;;;;9.15;82.54;96237.16;5003345;28;20211;-83
2023/01/05 09:56:25;;;;;;;12.47;2.80;;;;;;;9.04;81.73;96245.78;4997316;28;20183;-84
2023/01/05 09:58:51;;;;;;;12.37;2.43;;;;;;;9.38;81.03;96252.66;4989052;28;20208;-86
2023/01/05 10:01:18;;;;;;;10.37;2.77;;;;;;;9.24;80.92;96249.38;4991824;28;20188;-86
2023/01/05 10:04:14;;;;;;;13.67;3.20;;;;;;;9.24;80.86;96251.97;5008933;28;20187;-84
2023/01/05 10:06:45;;;;;;;12.13;2.80;;;;;;;9.23;80.84;96239.97;4992601;28;20203;-85
2023/01/05 10:09:18;;;;;;;9.30;3.00;;;;;;;9.35;80.84;96238.16;4996282;28;20362;-85
2023/01/05 10:14:39;;;;;;;13.93;2.80;;;;;;;9.44;80.09;96249.56;5004146;28;20214;-87
2023/01/05 10:17:20;;;;;;;7.67;2.30;;;;;;;9.29;79.33;96246.44;5002054;28;20291;-85
2023/01/05 10:19:46;;;;;;;14.63;2.67;;;;;;;9.54;79.58;96234.91;5004879;28;20178;-84
2023/01/05 10:22:31;;;;;;;10.87;2.37;;;;;;;9.48;79.10;96233.63;4973070;28;20405;-83
2023/01/05 10:25:02;;;;;;;9.97;2.63;;;;;;;9.59;78.92;96245.72;5000419;28;20195;-85
2023/01/05 11:05:44;;;;;;;10.10;2.90;;;;;;;9.71;76.38;96229.16;1380989;23;20665;-83
2023/01/05 11:08:22;;;;;;;15.67;3.20;;;;;;;9.64;77.10;96233.22;4957267;28;20224;-84
2023/01/05 11:10:58;;;;;;;10.80;2.70;;;;;;;9.71;76.96;96230.94;4960801;28;20249;-83
2023/01/05 11:13:27;;;;;;;12.13;2.80;;;;;;;9.80;76.80;96236.19;4968948;28;20211;-83
2023/01/05 11:15:59;;;;;;;9.23;2.60;;;;;;;9.89;76.42;96227.69;4975313;28;20184;-83
2023/01/05 11:18:37;;;;;;;8.87;2.57;;;;;;;9.78;75.86;96219.94;4943905;28;20308;-85
2023/01/05 11:21:09;;;;;;;9.50;2.53;;;;;;;9.72;75.98;96241.22;4977389;28;20660;-85
2023/01/05 11:23:44;;;;;;;13.67;3.17;;;;;;;9.69;76.35;96231.06;4972438;28;20212;-83
2023/01/05 11:26:18;;;;;;;16.50;2.97;;;;;;;9.63;76.05;96232.41;4956028;28;20184;-85
2023/01/05 11:29:08;;;;;;;11.20;2.67;;;;;;;9.59;75.39;96230.16;4975217;28;20215;-85
2023/01/05 11:31:36;;;;;;;11.77;2.20;;;;;;;9.72;75.35;96236.03;4991561;28;20251;-85
2023/01/05 11:34:18;;;;;;;8.20;2.50;;;;;;;9.77;74.45;96233.03;4961215;28;20275;-85
2023/01/05 11:36:54;;;;;;;15.27;2.77;;;;;;;9.82;74.97;96239.50;4990857;28;20192;-85
2023/01/05 11:39:26;;;;;;;13.67;3.27;;;;;;;9.69;74.93;96236.25;4969380;28;20235;-86
2023/01/05 11:42:06;;;;;;;10.57;2.87;;;;;;;9.79;75.06;96231.13;4967115;28;20281;-84
2023/01/05 11:44:33;;;;;;;16.47;3.27;;;;;;;9.82;74.97;96236.91;4973387;28;20283;-85
2023/01/05 11:46:58;;;;;;;16.27;3.00;;;;;;;9.63;75.27;96239.38;4975982;28;20199;-85
2023/01/05 11:49:24;;;;;;;9.37;2.33;;;;;;;9.81;75.16;96243.03;4976997;28;20192;-84
2023/01/05 11:51:49;;;;;;;11.87;3.23;;;;;;;9.96;74.61;96240.13;4978460;28;20568;-84
2023/01/05 11:54:30;;;;;;;12.67;4.73;;;;;;;9.75;75.33;96242.72;4960421;28;20330;-83
2023/01/05 11:57:14;;;;;;;16.93;2.77;;;;;;;9.70;75.68;96250.84;4967081;28;20575;-84
2023/01/05 11:59:39;;;;;;;17.23;3.73;;;;;;;9.63;75.95;96239.38;4959365;28;20192;-86
2023/01/05 12:02:26;;;;;;;23.20;11.23;;;;;;;9.76;76.37;96232.22;4975788;28;20188;-85
2023/01/05 12:05:14;;;;;;;25.07;11.13;;;;;;;9.80;75.90;96237.97;4976804;28;20192;-83
2023/01/05 12:07:46;;;;;;;17.07;4.73;;;;;;;9.80;76.52;96237.97;4972452;28;20228;-84
2023/01/05 12:10:44;;;;;;;15.87;3.07;;;;;;;9.60;77.13;96245.59;4970479;28;20191;-84
2023/01/05 12:13:28;;;;;;;9.60;2.67;;;;;;;9.80;76.43;96240.56;4987104;28;20247;-85
2023/01/05 12:16:00;;;;;;;11.70;2.57;;;;;;;9.64;77.20;96230.63;4981367;28;20188;-84
2023/01/05 12:18:43;;;;;;;10.93;3.03;;;;;;;9.80;77.07;96237.97;4964103;28;20227;-84
2023/01/05 12:21:22;;;;;;;13.87;3.00;;;;;;;9.57;78.56;96242.44;4978795;28;20211;-86
2023/01/05 12:24:05;;;;;;;13.23;3.33;;;;;;;9.72;78.08;96241.22;4971051;28;20192;-86
2023/01/05 12:27:18;;;;;;;16.57;3.93;;;;;;;9.71;78.11;96239.53;4977606;28;20197;-85
2023/01/05 12:30:02;;;;;;;14.17;3.00;;;;;;;9.76;77.81;96241.75;4896475;29;20195;-86
2023/01/05 12:32:46;;;;;;;16.60;3.00;;;;;;;9.70;78.41;96256.03;4971953;28;20231;-86
2023/01/05 12:35:27;;;;;;;15.00;3.60;;;;;;;9.71;78.66;96255.09;4958900;28;20676;-88
2023/01/05 12:38:04;;;;;;;10.03;2.40;;;;;;;9.68;78.57;96250.16;4977567;28;20215;-82
2023/01/05 12:40:40;;;;;;;14.17;3.33;;;;;;;9.79;77.62;96246.69;4987161;28;20196;-86
2023/01/05 12:43:08;;;;;;;13.37;3.43;;;;;;;9.79;78.11;96251.88;4962723;28;20268;-86
2023/01/05 12:45:52;;;;;;;14.97;3.53;;;;;;;9.82;78.11;96256.84;4962308;28;20188;-85
2023/01/05 12:48:22;;;;;;;21.30;3.20;;;;;;;9.77;78.06;96256.38;4976922;28;20306;-83
2023/01/05 12:50:57;;;;;;;15.10;3.17;;;;;;;9.75;78.45;96264.28;4979519;28;20196;-82
2023/01/05 12:53:34;;;;;;;14.00;2.90;;;;;;;9.77;78.29;96254.59;4977086;28;20215;-81
2023/01/05 12:56:07;;;;;;;14.20;3.17;;;;;;;9.79;78.19;96252.69;4960414;28;20650;-81